sensor_id;sensor_type;location;lat;lon;timestamp;P1;durP1;ratioP1;P2;durP2;ratioP2
54121;SDS011;40029;58.708;50.190;2023-05-10T00:01:25;27.23;;;6.93;;
54121;SDS011;40029;58.708;50.190;2023-05-10T00:03:56;21.95;;;7.60;;
54121;SDS011;40029;58.708;50.190;2023-05-10T00:06:28;20.00;;;6.70;;
54121;SDS011;40029;58.708;50.190;2023-05-10T00:08:59;27.50;;;7.05;;
54121;SDS011;40029;58.708;50.190;2023-05-10T00:11:48;17.23;;;6.70;;
54121;SDS011;40029;58.708;50.190;2023-05-10T00:14:38;12.48;;;4.47;;
54121;SDS011;40029;58.708;50.190;2023-05-10T00:17:09;14.25;;;5.32;;
54121;SDS011;40029;58.708;50.190;2023-05-10T00:19:40;11.18;;;5.05;;
54121;SDS011;40029;58.708;50.190;2023-05-10T00:22:11;21.55;;;6.45;;
54121;SDS011;40029;58.708;50.190;2023-05-10T00:24:42;20.25;;;5.00;;
54121;SDS011;40029;58.708;50.190;2023-05-10T00:27:14;20.25;;;5.03;;
54121;SDS011;40029;58.708;50.190;2023-05-10T00:29:45;12.23;;;5.60;;
54121;SDS011;40029;58.708;50.190;2023-05-10T00:32:16;10.35;;;4.32;;
54121;SDS011;40029;58.708;50.190;2023-05-10T00:34:47;8.05;;;4.80;;
54121;SDS011;40029;58.708;50.190;2023-05-10T00:37:37;13.68;;;5.03;;
54121;SDS011;40029;58.708;50.190;2023-05-10T00:40:08;17.60;;;5.10;;
54121;SDS011;40029;58.708;50.190;2023-05-10T00:42:40;17.55;;;5.75;;
54121;SDS011;40029;58.708;50.190;2023-05-10T00:45:11;13.00;;;5.15;;
54121;SDS011;40029;58.708;50.190;2023-05-10T00:47:42;15.68;;;5.93;;
54121;SDS011;40029;58.708;50.190;2023-05-10T00:50:14;10.95;;;4.80;;
54121;SDS011;40029;58.708;50.190;2023-05-10T00:52:46;23.83;;;5.82;;
54121;SDS011;40029;58.708;50.190;2023-05-10T00:55:17;11.95;;;5.38;;
54121;SDS011;40029;58.708;50.190;2023-05-10T00:57:51;25.30;;;5.47;;
54121;SDS011;40029;58.708;50.190;2023-05-10T01:00:23;18.85;;;5.55;;
54121;SDS011;40029;58.708;50.190;2023-05-10T01:02:56;13.40;;;5.85;;
54121;SDS011;40029;58.708;50.190;2023-05-10T01:05:27;15.50;;;5.40;;
54121;SDS011;40029;58.708;50.190;2023-05-10T01:07:58;14.85;;;5.47;;
54121;SDS011;40029;58.708;50.190;2023-05-10T01:10:30;13.00;;;5.78;;
54121;SDS011;40029;58.708;50.190;2023-05-10T01:13:02;16.92;;;5.63;;
54121;SDS011;40029;58.708;50.190;2023-05-10T01:15:33;27.30;;;6.78;;
54121;SDS011;40029;58.708;50.190;2023-05-10T01:18:05;18.23;;;5.80;;
54121;SDS011;40029;58.708;50.190;2023-05-10T01:20:40;9.10;;;4.22;;
54121;SDS011;40029;58.708;50.190;2023-05-10T01:29:07;9.57;;;4.90;;
54121;SDS011;40029;58.708;50.190;2023-05-10T01:37:41;10.45;;;4.60;;
54121;SDS011;40029;58.708;50.190;2023-05-10T01:40:26;9.88;;;4.30;;
54121;SDS011;40029;58.708;50.190;2023-05-10T01:43:28;15.48;;;4.95;;
54121;SDS011;40029;58.708;50.190;2023-05-10T01:46:05;10.32;;;4.75;;
54121;SDS011;40029;58.708;50.190;2023-05-10T01:49:00;12.00;;;4.50;;
54121;SDS011;40029;58.708;50.190;2023-05-10T01:54:41;9.82;;;4.85;;
54121;SDS011;40029;58.708;50.190;2023-05-10T01:57:36;10.95;;;4.50;;
54121;SDS011;40029;58.708;50.190;2023-05-10T02:00:13;10.95;;;4.20;;
54121;SDS011;40029;58.708;50.190;2023-05-10T02:02:47;15.27;;;3.80;;
54121;SDS011;40029;58.708;50.190;2023-05-10T02:05:20;13.50;;;3.72;;
54121;SDS011;40029;58.708;50.190;2023-05-10T02:07:53;14.80;;;4.20;;
54121;SDS011;40029;58.708;50.190;2023-05-10T02:10:26;6.15;;;3.95;;
54121;SDS011;40029;58.708;50.190;2023-05-10T02:12:59;7.78;;;3.97;;
54121;SDS011;40029;58.708;50.190;2023-05-10T02:15:33;7.53;;;3.40;;
54121;SDS011;40029;58.708;50.190;2023-05-10T02:18:24;21.05;;;3.70;;
54121;SDS011;40029;58.708;50.190;2023-05-10T02:20:57;13.55;;;3.42;;
54121;SDS011;40029;58.708;50.190;2023-05-10T02:23:30;14.68;;;3.42;;
54121;SDS011;40029;58.708;50.190;2023-05-10T02:26:02;9.95;;;3.60;;
54121;SDS011;40029;58.708;50.190;2023-05-10T02:28:36;10.70;;;3.30;;
54121;SDS011;40029;58.708;50.190;2023-05-10T02:31:08;24.50;;;4.22;;
54121;SDS011;40029;58.708;50.190;2023-05-10T02:33:42;9.27;;;5.72;;
54121;SDS011;40029;58.708;50.190;2023-05-10T02:36:15;12.27;;;5.25;;
54121;SDS011;40029;58.708;50.190;2023-05-10T02:38:47;11.60;;;5.78;;
54121;SDS011;40029;58.708;50.190;2023-05-10T02:41:21;14.00;;;5.88;;
54121;SDS011;40029;58.708;50.190;2023-05-10T02:43:55;10.68;;;5.70;;
54121;SDS011;40029;58.708;50.190;2023-05-10T02:46:30;13.38;;;5.40;;
54121;SDS011;40029;58.708;50.190;2023-05-10T02:49:03;16.58;;;5.97;;
54121;SDS011;40029;58.708;50.190;2023-05-10T02:51:35;11.23;;;5.50;;
54121;SDS011;40029;58.708;50.190;2023-05-10T02:54:12;12.98;;;5.32;;
54121;SDS011;40029;58.708;50.190;2023-05-10T02:56:50;11.57;;;5.10;;
54121;SDS011;40029;58.708;50.190;2023-05-10T02:59:24;10.07;;;3.95;;
54121;SDS011;40029;58.708;50.190;2023-05-10T03:01:56;6.57;;;2.90;;
54121;SDS011;40029;58.708;50.190;2023-05-10T03:04:27;4.38;;;2.40;;
54121;SDS011;40029;58.708;50.190;2023-05-10T03:07:01;7.15;;;3.25;;
54121;SDS011;40029;58.708;50.190;2023-05-10T03:09:32;6.93;;;2.97;;
54121;SDS011;40029;58.708;50.190;2023-05-10T03:12:06;8.82;;;2.80;;
54121;SDS011;40029;58.708;50.190;2023-05-10T03:15:14;6.63;;;2.38;;
54121;SDS011;40029;58.708;50.190;2023-05-10T03:18:03;3.35;;;2.13;;
54121;SDS011;40029;58.708;50.190;2023-05-10T03:20:40;2.90;;;1.40;;
54121;SDS011;40029;58.708;50.190;2023-05-10T03:25:49;2.17;;;1.42;;
54121;SDS011;40029;58.708;50.190;2023-05-10T03:28:39;2.92;;;1.70;;
54121;SDS011;40029;58.708;50.190;2023-05-10T03:31:12;3.08;;;1.90;;
54121;SDS011;40029;58.708;50.190;2023-05-10T03:33:48;5.72;;;2.17;;
54121;SDS011;40029;58.708;50.190;2023-05-10T03:36:28;4.28;;;2.30;;
54121;SDS011;40029;58.708;50.190;2023-05-10T03:39:00;3.85;;;1.88;;
54121;SDS011;40029;58.708;50.190;2023-05-10T03:41:49;2.95;;;1.23;;
54121;SDS011;40029;58.708;50.190;2023-05-10T03:44:21;13.32;;;4.57;;
54121;SDS011;40029;58.708;50.190;2023-05-10T03:46:52;6.55;;;1.85;;
54121;SDS011;40029;58.708;50.190;2023-05-10T03:49:42;11.35;;;2.22;;
54121;SDS011;40029;58.708;50.190;2023-05-10T03:52:15;2.53;;;1.33;;
54121;SDS011;40029;58.708;50.190;2023-05-10T03:54:46;4.50;;;1.30;;
54121;SDS011;40029;58.708;50.190;2023-05-10T03:57:36;3.92;;;1.70;;
54121;SDS011;40029;58.708;50.190;2023-05-10T04:00:07;9.60;;;2.15;;
54121;SDS011;40029;58.708;50.190;2023-05-10T04:02:46;2.53;;;1.48;;
54121;SDS011;40029;58.708;50.190;2023-05-10T04:05:22;13.52;;;2.10;;
54121;SDS011;40029;58.708;50.190;2023-05-10T04:07:56;8.07;;;1.67;;
54121;SDS011;40029;58.708;50.190;2023-05-10T04:10:27;14.43;;;1.60;;
54121;SDS011;40029;58.708;50.190;2023-05-10T04:12:58;1.50;;;0.93;;
54121;SDS011;40029;58.708;50.190;2023-05-10T04:15:30;22.33;;;2.75;;
54121;SDS011;40029;58.708;50.190;2023-05-10T04:18:01;2.78;;;1.17;;
54121;SDS011;40029;58.708;50.190;2023-05-10T04:20:32;8.93;;;1.90;;
54121;SDS011;40029;58.708;50.190;2023-05-10T04:23:22;3.95;;;1.23;;
54121;SDS011;40029;58.708;50.190;2023-05-10T04:26:02;1.73;;;1.00;;
54121;SDS011;40029;58.708;50.190;2023-05-10T04:28:33;6.70;;;1.73;;
54121;SDS011;40029;58.708;50.190;2023-05-10T04:31:06;7.15;;;2.13;;
54121;SDS011;40029;58.708;50.190;2023-05-10T04:33:39;6.97;;;1.30;;
54121;SDS011;40029;58.708;50.190;2023-05-10T04:36:10;15.48;;;5.45;;
54121;SDS011;40029;58.708;50.190;2023-05-10T04:38:41;5.22;;;1.30;;
54121;SDS011;40029;58.708;50.190;2023-05-10T04:41:13;9.93;;;3.03;;
54121;SDS011;40029;58.708;50.190;2023-05-10T04:43:44;38.72;;;4.68;;
54121;SDS011;40029;58.708;50.190;2023-05-10T04:46:15;6.28;;;1.40;;
54121;SDS011;40029;58.708;50.190;2023-05-10T04:48:47;2.45;;;1.27;;
54121;SDS011;40029;58.708;50.190;2023-05-10T04:51:18;5.40;;;1.83;;
54121;SDS011;40029;58.708;50.190;2023-05-10T04:53:49;5.43;;;1.25;;
54121;SDS011;40029;58.708;50.190;2023-05-10T04:56:39;14.70;;;1.95;;
54121;SDS011;40029;58.708;50.190;2023-05-10T04:59:11;3.97;;;1.23;;
54121;SDS011;40029;58.708;50.190;2023-05-10T05:01:42;6.88;;;1.40;;
54121;SDS011;40029;58.708;50.190;2023-05-10T05:04:15;8.55;;;1.35;;
54121;SDS011;40029;58.708;50.190;2023-05-10T05:07:05;2.50;;;1.63;;
54121;SDS011;40029;58.708;50.190;2023-05-10T05:09:37;2.20;;;1.45;;
54121;SDS011;40029;58.708;50.190;2023-05-10T05:12:08;4.20;;;1.20;;
54121;SDS011;40029;58.708;50.190;2023-05-10T05:14:44;2.30;;;1.20;;
54121;SDS011;40029;58.708;50.190;2023-05-10T05:17:15;2.17;;;1.10;;
54121;SDS011;40029;58.708;50.190;2023-05-10T05:19:46;1.90;;;1.17;;
54121;SDS011;40029;58.708;50.190;2023-05-10T05:22:18;32.70;;;4.03;;
54121;SDS011;40029;58.708;50.190;2023-05-10T05:24:50;3.85;;;1.70;;
54121;SDS011;40029;58.708;50.190;2023-05-10T05:27:21;3.28;;;1.58;;
54121;SDS011;40029;58.708;50.190;2023-05-10T05:30:13;12.45;;;1.83;;
54121;SDS011;40029;58.708;50.190;2023-05-10T05:32:44;11.00;;;1.55;;
54121;SDS011;40029;58.708;50.190;2023-05-10T05:35:17;8.15;;;1.50;;
54121;SDS011;40029;58.708;50.190;2023-05-10T05:37:48;1.58;;;0.90;;
54121;SDS011;40029;58.708;50.190;2023-05-10T05:40:20;6.05;;;1.52;;
54121;SDS011;40029;58.708;50.190;2023-05-10T05:42:51;6.22;;;1.17;;
54121;SDS011;40029;58.708;50.190;2023-05-10T05:45:22;24.60;;;2.88;;
54121;SDS011;40029;58.708;50.190;2023-05-10T05:47:53;3.25;;;1.20;;
54121;SDS011;40029;58.708;50.190;2023-05-10T05:50:24;2.60;;;1.10;;
54121;SDS011;40029;58.708;50.190;2023-05-10T05:52:55;3.20;;;2.00;;
54121;SDS011;40029;58.708;50.190;2023-05-10T05:55:27;3.28;;;1.30;;
54121;SDS011;40029;58.708;50.190;2023-05-10T05:58:00;4.65;;;1.58;;
54121;SDS011;40029;58.708;50.190;2023-05-10T06:00:31;1.67;;;1.48;;
54121;SDS011;40029;58.708;50.190;2023-05-10T06:03:02;18.58;;;2.85;;
54121;SDS011;40029;58.708;50.190;2023-05-10T06:05:34;14.00;;;1.98;;
54121;SDS011;40029;58.708;50.190;2023-05-10T06:08:05;2.80;;;1.80;;
54121;SDS011;40029;58.708;50.190;2023-05-10T06:10:36;7.55;;;2.55;;
54121;SDS011;40029;58.708;50.190;2023-05-10T06:13:08;3.97;;;1.80;;
54121;SDS011;40029;58.708;50.190;2023-05-10T06:15:39;3.65;;;1.55;;
54121;SDS011;40029;58.708;50.190;2023-05-10T06:18:10;3.00;;;1.70;;
54121;SDS011;40029;58.708;50.190;2023-05-10T06:20:41;4.07;;;1.80;;
54121;SDS011;40029;58.708;50.190;2023-05-10T06:23:13;6.75;;;2.45;;
54121;SDS011;40029;58.708;50.190;2023-05-10T06:25:44;8.23;;;1.52;;
54121;SDS011;40029;58.708;50.190;2023-05-10T06:28:15;9.55;;;1.80;;
54121;SDS011;40029;58.708;50.190;2023-05-10T06:30:47;9.27;;;1.42;;
54121;SDS011;40029;58.708;50.190;2023-05-10T06:33:18;1.33;;;0.85;;
54121;SDS011;40029;58.708;50.190;2023-05-10T06:35:49;1.15;;;0.90;;
54121;SDS011;40029;58.708;50.190;2023-05-10T06:38:20;19.27;;;1.55;;
54121;SDS011;40029;58.708;50.190;2023-05-10T06:40:52;2.55;;;0.70;;
54121;SDS011;40029;58.708;50.190;2023-05-10T06:43:23;5.47;;;0.70;;
54121;SDS011;40029;58.708;50.190;2023-05-10T06:45:55;2.13;;;0.93;;
54121;SDS011;40029;58.708;50.190;2023-05-10T06:48:26;3.13;;;0.98;;
54121;SDS011;40029;58.708;50.190;2023-05-10T06:50:58;5.28;;;1.08;;
54121;SDS011;40029;58.708;50.190;2023-05-10T06:53:29;1.42;;;0.75;;
54121;SDS011;40029;58.708;50.190;2023-05-10T06:56:00;0.98;;;0.90;;
54121;SDS011;40029;58.708;50.190;2023-05-10T06:58:31;3.22;;;0.70;;
54121;SDS011;40029;58.708;50.190;2023-05-10T07:01:03;9.50;;;1.50;;
54121;SDS011;40029;58.708;50.190;2023-05-10T07:03:35;15.52;;;1.45;;
54121;SDS011;40029;58.708;50.190;2023-05-10T07:06:07;1.75;;;0.75;;
54121;SDS011;40029;58.708;50.190;2023-05-10T07:08:38;2.83;;;1.10;;
54121;SDS011;40029;58.708;50.190;2023-05-10T07:11:09;3.53;;;1.00;;
54121;SDS011;40029;58.708;50.190;2023-05-10T07:13:43;2.67;;;0.98;;
54121;SDS011;40029;58.708;50.190;2023-05-10T07:16:16;3.10;;;1.30;;
54121;SDS011;40029;58.708;50.190;2023-05-10T07:18:48;1.73;;;1.02;;
54121;SDS011;40029;58.708;50.190;2023-05-10T07:21:20;2.72;;;1.13;;
54121;SDS011;40029;58.708;50.190;2023-05-10T07:23:54;9.43;;;1.85;;
54121;SDS011;40029;58.708;50.190;2023-05-10T07:26:26;4.45;;;1.20;;
54121;SDS011;40029;58.708;50.190;2023-05-10T07:28:57;2.55;;;1.02;;
54121;SDS011;40029;58.708;50.190;2023-05-10T07:31:28;2.83;;;0.98;;
54121;SDS011;40029;58.708;50.190;2023-05-10T07:33:59;1.67;;;1.33;;
54121;SDS011;40029;58.708;50.190;2023-05-10T07:36:31;7.45;;;1.08;;
54121;SDS011;40029;58.708;50.190;2023-05-10T07:39:03;5.30;;;1.20;;
54121;SDS011;40029;58.708;50.190;2023-05-10T07:41:34;6.22;;;1.15;;
54121;SDS011;40029;58.708;50.190;2023-05-10T07:44:24;5.25;;;1.17;;
54121;SDS011;40029;58.708;50.190;2023-05-10T07:47:14;2.05;;;1.15;;
54121;SDS011;40029;58.708;50.190;2023-05-10T07:49:45;8.88;;;1.10;;
54121;SDS011;40029;58.708;50.190;2023-05-10T07:52:16;2.72;;;1.38;;
54121;SDS011;40029;58.708;50.190;2023-05-10T07:54:47;1.38;;;1.00;;
54121;SDS011;40029;58.708;50.190;2023-05-10T07:57:18;2.95;;;1.15;;
54121;SDS011;40029;58.708;50.190;2023-05-10T07:59:50;3.50;;;2.08;;
54121;SDS011;40029;58.708;50.190;2023-05-10T08:02:21;1.65;;;1.05;;
54121;SDS011;40029;58.708;50.190;2023-05-10T08:04:52;1.50;;;0.98;;
54121;SDS011;40029;58.708;50.190;2023-05-10T08:07:24;3.88;;;1.10;;
54121;SDS011;40029;58.708;50.190;2023-05-10T08:10:14;4.80;;;1.40;;
54121;SDS011;40029;58.708;50.190;2023-05-10T08:12:45;8.15;;;1.60;;
54121;SDS011;40029;58.708;50.190;2023-05-10T08:15:16;1.45;;;1.10;;
54121;SDS011;40029;58.708;50.190;2023-05-10T08:17:47;3.03;;;0.95;;
54121;SDS011;40029;58.708;50.190;2023-05-10T08:20:19;13.93;;;1.63;;
54121;SDS011;40029;58.708;50.190;2023-05-10T08:23:09;1.77;;;0.80;;
54121;SDS011;40029;58.708;50.190;2023-05-10T08:25:40;8.55;;;1.70;;
54121;SDS011;40029;58.708;50.190;2023-05-10T08:28:12;1.05;;;0.80;;
54121;SDS011;40029;58.708;50.190;2023-05-10T08:31:02;1.70;;;1.10;;
54121;SDS011;40029;58.708;50.190;2023-05-10T08:33:33;2.90;;;1.10;;
54121;SDS011;40029;58.708;50.190;2023-05-10T08:36:04;5.22;;;1.27;;
54121;SDS011;40029;58.708;50.190;2023-05-10T08:38:35;3.45;;;1.02;;
54121;SDS011;40029;58.708;50.190;2023-05-10T08:41:07;16.30;;;2.22;;
54121;SDS011;40029;58.708;50.190;2023-05-10T08:43:39;2.05;;;1.13;;
54121;SDS011;40029;58.708;50.190;2023-05-10T08:46:30;4.88;;;1.13;;
54121;SDS011;40029;58.708;50.190;2023-05-10T08:49:06;2.30;;;1.30;;
54121;SDS011;40029;58.708;50.190;2023-05-10T08:51:41;2.85;;;1.05;;
54121;SDS011;40029;58.708;50.190;2023-05-10T08:54:17;2.83;;;1.00;;
54121;SDS011;40029;58.708;50.190;2023-05-10T08:57:09;1.10;;;0.88;;
54121;SDS011;40029;58.708;50.190;2023-05-10T08:59:41;2.28;;;1.40;;
54121;SDS011;40029;58.708;50.190;2023-05-10T09:02:12;2.30;;;0.75;;
54121;SDS011;40029;58.708;50.190;2023-05-10T09:04:44;1.33;;;1.05;;
54121;SDS011;40029;58.708;50.190;2023-05-10T09:07:16;5.15;;;1.45;;
54121;SDS011;40029;58.708;50.190;2023-05-10T09:09:47;2.25;;;0.80;;
54121;SDS011;40029;58.708;50.190;2023-05-10T09:12:19;2.15;;;1.20;;
54121;SDS011;40029;58.708;50.190;2023-05-10T09:14:50;2.92;;;0.90;;
54121;SDS011;40029;58.708;50.190;2023-05-10T09:17:24;3.65;;;1.23;;
54121;SDS011;40029;58.708;50.190;2023-05-10T09:20:01;1.35;;;0.80;;
54121;SDS011;40029;58.708;50.190;2023-05-10T09:22:35;19.98;;;2.38;;
54121;SDS011;40029;58.708;50.190;2023-05-10T09:25:10;2.92;;;0.90;;
54121;SDS011;40029;58.708;50.190;2023-05-10T09:27:46;1.95;;;0.85;;
54121;SDS011;40029;58.708;50.190;2023-05-10T09:30:25;2.33;;;0.98;;
54121;SDS011;40029;58.708;50.190;2023-05-10T09:33:01;1.95;;;0.73;;
54121;SDS011;40029;58.708;50.190;2023-05-10T09:35:32;1.63;;;1.40;;
54121;SDS011;40029;58.708;50.190;2023-05-10T09:38:04;4.38;;;1.20;;
54121;SDS011;40029;58.708;50.190;2023-05-10T09:40:36;6.05;;;1.10;;
54121;SDS011;40029;58.708;50.190;2023-05-10T09:43:07;6.10;;;1.20;;
54121;SDS011;40029;58.708;50.190;2023-05-10T09:45:38;3.22;;;1.75;;
54121;SDS011;40029;58.708;50.190;2023-05-10T09:48:12;8.25;;;1.55;;
54121;SDS011;40029;58.708;50.190;2023-05-10T09:51:01;3.75;;;1.10;;
54121;SDS011;40029;58.708;50.190;2023-05-10T09:53:32;1.60;;;1.00;;
54121;SDS011;40029;58.708;50.190;2023-05-10T09:56:03;1.33;;;0.90;;
54121;SDS011;40029;58.708;50.190;2023-05-10T09:58:35;2.55;;;0.98;;
54121;SDS011;40029;58.708;50.190;2023-05-10T10:01:11;3.15;;;1.48;;
54121;SDS011;40029;58.708;50.190;2023-05-10T10:03:43;3.80;;;2.15;;
54121;SDS011;40029;58.708;50.190;2023-05-10T10:06:18;3.40;;;1.20;;
54121;SDS011;40029;58.708;50.190;2023-05-10T10:08:50;4.88;;;2.08;;
54121;SDS011;40029;58.708;50.190;2023-05-10T10:11:22;3.92;;;1.60;;
54121;SDS011;40029;58.708;50.190;2023-05-10T10:13:54;8.75;;;3.85;;
54121;SDS011;40029;58.708;50.190;2023-05-10T10:16:26;121.68;;;8.55;;
54121;SDS011;40029;58.708;50.190;2023-05-10T10:18:59;14.43;;;7.13;;
54121;SDS011;40029;58.708;50.190;2023-05-10T10:21:31;19.85;;;6.68;;
54121;SDS011;40029;58.708;50.190;2023-05-10T10:24:03;5.78;;;3.33;;
54121;SDS011;40029;58.708;50.190;2023-05-10T10:26:36;2.42;;;1.33;;
54121;SDS011;40029;58.708;50.190;2023-05-10T10:29:27;3.60;;;1.63;;
54121;SDS011;40029;58.708;50.190;2023-05-10T10:34:53;3.97;;;1.17;;
54121;SDS011;40029;58.708;50.190;2023-05-10T10:37:40;14.90;;;3.42;;
54121;SDS011;40029;58.708;50.190;2023-05-10T10:40:27;6.85;;;1.30;;
54121;SDS011;40029;58.708;50.190;2023-05-10T10:46:16;3.03;;;1.00;;
54121;SDS011;40029;58.708;50.190;2023-05-10T10:49:10;3.50;;;1.67;;
54121;SDS011;40029;58.708;50.190;2023-05-10T10:52:12;4.40;;;2.25;;
54121;SDS011;40029;58.708;50.190;2023-05-10T10:55:14;4.55;;;1.63;;
54121;SDS011;40029;58.708;50.190;2023-05-10T10:57:53;1.10;;;0.98;;
54121;SDS011;40029;58.708;50.190;2023-05-10T11:03:12;5.85;;;1.50;;
54121;SDS011;40029;58.708;50.190;2023-05-10T11:05:45;1.85;;;0.90;;
54121;SDS011;40029;58.708;50.190;2023-05-10T11:08:27;3.85;;;1.20;;
54121;SDS011;40029;58.708;50.190;2023-05-10T11:13:44;6.50;;;2.35;;
54121;SDS011;40029;58.708;50.190;2023-05-10T11:18:59;11.57;;;1.63;;
54121;SDS011;40029;58.708;50.190;2023-05-10T11:21:33;6.68;;;1.50;;
54121;SDS011;40029;58.708;50.190;2023-05-10T11:24:16;2.35;;;0.90;;
54121;SDS011;40029;58.708;50.190;2023-05-10T11:26:52;2.58;;;1.02;;
54121;SDS011;40029;58.708;50.190;2023-05-10T11:29:24;8.23;;;1.40;;
54121;SDS011;40029;58.708;50.190;2023-05-10T11:32:15;5.43;;;1.50;;
54121;SDS011;40029;58.708;50.190;2023-05-10T11:34:46;4.57;;;1.38;;
54121;SDS011;40029;58.708;50.190;2023-05-10T11:37:18;5.03;;;1.52;;
54121;SDS011;40029;58.708;50.190;2023-05-10T11:40:09;1.98;;;1.15;;
54121;SDS011;40029;58.708;50.190;2023-05-10T11:42:40;6.43;;;1.55;;
54121;SDS011;40029;58.708;50.190;2023-05-10T11:45:12;4.55;;;1.38;;
54121;SDS011;40029;58.708;50.190;2023-05-10T11:47:43;4.93;;;2.15;;
54121;SDS011;40029;58.708;50.190;2023-05-10T11:50:14;5.40;;;1.50;;
54121;SDS011;40029;58.708;50.190;2023-05-10T11:52:49;1.80;;;1.20;;
54121;SDS011;40029;58.708;50.190;2023-05-10T11:55:22;3.67;;;1.30;;
54121;SDS011;40029;58.708;50.190;2023-05-10T11:57:54;5.32;;;1.33;;
54121;SDS011;40029;58.708;50.190;2023-05-10T12:00:26;2.50;;;1.00;;
54121;SDS011;40029;58.708;50.190;2023-05-10T12:02:57;5.72;;;1.92;;
54121;SDS011;40029;58.708;50.190;2023-05-10T12:05:31;1.83;;;1.25;;
54121;SDS011;40029;58.708;50.190;2023-05-10T12:08:15;2.10;;;1.05;;
54121;SDS011;40029;58.708;50.190;2023-05-10T12:11:09;5.45;;;2.58;;
54121;SDS011;40029;58.708;50.190;2023-05-10T12:13:46;8.27;;;2.15;;
54121;SDS011;40029;58.708;50.190;2023-05-10T12:16:22;2.40;;;1.50;;
54121;SDS011;40029;58.708;50.190;2023-05-10T12:18:57;4.80;;;1.55;;
54121;SDS011;40029;58.708;50.190;2023-05-10T12:21:29;8.32;;;3.38;;
54121;SDS011;40029;58.708;50.190;2023-05-10T12:24:02;2.63;;;1.10;;
54121;SDS011;40029;58.708;50.190;2023-05-10T12:26:34;3.08;;;1.63;;
54121;SDS011;40029;58.708;50.190;2023-05-10T12:29:16;4.28;;;2.05;;
54121;SDS011;40029;58.708;50.190;2023-05-10T12:34:32;9.52;;;3.40;;
54121;SDS011;40029;58.708;50.190;2023-05-10T12:37:05;12.65;;;4.95;;
54121;SDS011;40029;58.708;50.190;2023-05-10T12:39:40;4.38;;;2.80;;
54121;SDS011;40029;58.708;50.190;2023-05-10T12:42:13;16.55;;;5.07;;
54121;SDS011;40029;58.708;50.190;2023-05-10T12:45:03;6.10;;;2.92;;
54121;SDS011;40029;58.708;50.190;2023-05-10T12:47:37;11.77;;;3.67;;
54121;SDS011;40029;58.708;50.190;2023-05-10T12:50:08;10.07;;;2.60;;
54121;SDS011;40029;58.708;50.190;2023-05-10T12:52:40;3.33;;;2.20;;
54121;SDS011;40029;58.708;50.190;2023-05-10T12:55:11;5.65;;;2.92;;
54121;SDS011;40029;58.708;50.190;2023-05-10T12:57:42;4.47;;;1.98;;
54121;SDS011;40029;58.708;50.190;2023-05-10T13:00:32;12.50;;;3.35;;
54121;SDS011;40029;58.708;50.190;2023-05-10T13:03:04;6.60;;;2.38;;
54121;SDS011;40029;58.708;50.190;2023-05-10T13:08:09;8.48;;;2.83;;
54121;SDS011;40029;58.708;50.190;2023-05-10T13:10:40;13.55;;;3.35;;
54121;SDS011;40029;58.708;50.190;2023-05-10T13:13:12;13.18;;;3.53;;
54121;SDS011;40029;58.708;50.190;2023-05-10T13:15:43;5.32;;;2.05;;
54121;SDS011;40029;58.708;50.190;2023-05-10T13:18:32;9.90;;;2.33;;
54121;SDS011;40029;58.708;50.190;2023-05-10T13:21:04;4.75;;;1.90;;
54121;SDS011;40029;58.708;50.190;2023-05-10T13:23:36;5.50;;;2.10;;
54121;SDS011;40029;58.708;50.190;2023-05-10T13:26:07;6.03;;;1.40;;
54121;SDS011;40029;58.708;50.190;2023-05-10T13:28:38;3.30;;;1.10;;
54121;SDS011;40029;58.708;50.190;2023-05-10T13:31:09;5.50;;;1.40;;
54121;SDS011;40029;58.708;50.190;2023-05-10T13:33:40;3.45;;;1.50;;
54121;SDS011;40029;58.708;50.190;2023-05-10T13:36:12;3.80;;;1.08;;
54121;SDS011;40029;58.708;50.190;2023-05-10T13:38:43;22.15;;;2.17;;
54121;SDS011;40029;58.708;50.190;2023-05-10T13:41:14;5.20;;;1.42;;
54121;SDS011;40029;58.708;50.190;2023-05-10T13:43:45;10.32;;;1.20;;
54121;SDS011;40029;58.708;50.190;2023-05-10T13:46:19;4.95;;;1.40;;
54121;SDS011;40029;58.708;50.190;2023-05-10T13:48:50;5.93;;;1.50;;
54121;SDS011;40029;58.708;50.190;2023-05-10T13:51:21;2.47;;;1.30;;
54121;SDS011;40029;58.708;50.190;2023-05-10T13:53:52;6.47;;;1.50;;
54121;SDS011;40029;58.708;50.190;2023-05-10T13:56:24;6.32;;;1.35;;
54121;SDS011;40029;58.708;50.190;2023-05-10T13:58:56;3.85;;;1.52;;
54121;SDS011;40029;58.708;50.190;2023-05-10T14:01:28;13.52;;;2.65;;
54121;SDS011;40029;58.708;50.190;2023-05-10T14:04:00;10.43;;;3.30;;
54121;SDS011;40029;58.708;50.190;2023-05-10T14:06:31;8.45;;;4.75;;
54121;SDS011;40029;58.708;50.190;2023-05-10T14:09:03;15.85;;;5.93;;
54121;SDS011;40029;58.708;50.190;2023-05-10T14:11:34;18.75;;;7.97;;
54121;SDS011;40029;58.708;50.190;2023-05-10T14:14:23;9.38;;;5.22;;
54121;SDS011;40029;58.708;50.190;2023-05-10T14:16:55;10.52;;;7.72;;
54121;SDS011;40029;58.708;50.190;2023-05-10T14:19:26;13.80;;;4.63;;
54121;SDS011;40029;58.708;50.190;2023-05-10T14:21:58;13.38;;;4.53;;
54121;SDS011;40029;58.708;50.190;2023-05-10T14:24:29;15.60;;;4.20;;
54121;SDS011;40029;58.708;50.190;2023-05-10T14:27:00;17.33;;;4.97;;
54121;SDS011;40029;58.708;50.190;2023-05-10T14:29:50;7.80;;;3.42;;
54121;SDS011;40029;58.708;50.190;2023-05-10T14:32:21;4.55;;;2.75;;
54121;SDS011;40029;58.708;50.190;2023-05-10T14:34:52;6.43;;;2.90;;
54121;SDS011;40029;58.708;50.190;2023-05-10T14:37:23;9.02;;;2.90;;
54121;SDS011;40029;58.708;50.190;2023-05-10T14:39:55;10.05;;;4.20;;
54121;SDS011;40029;58.708;50.190;2023-05-10T14:42:26;11.10;;;4.85;;
54121;SDS011;40029;58.708;50.190;2023-05-10T14:44:57;11.75;;;2.90;;
54121;SDS011;40029;58.708;50.190;2023-05-10T14:47:28;15.52;;;5.25;;
54121;SDS011;40029;58.708;50.190;2023-05-10T14:49:59;16.88;;;6.85;;
54121;SDS011;40029;58.708;50.190;2023-05-10T14:52:31;15.43;;;5.60;;
54121;SDS011;40029;58.708;50.190;2023-05-10T14:55:02;21.35;;;6.90;;
54121;SDS011;40029;58.708;50.190;2023-05-10T14:57:34;24.92;;;7.07;;
54121;SDS011;40029;58.708;50.190;2023-05-10T15:00:06;22.98;;;7.43;;
54121;SDS011;40029;58.708;50.190;2023-05-10T15:02:56;22.38;;;9.30;;
54121;SDS011;40029;58.708;50.190;2023-05-10T15:05:27;26.30;;;8.93;;
54121;SDS011;40029;58.708;50.190;2023-05-10T15:07:59;19.67;;;8.05;;
54121;SDS011;40029;58.708;50.190;2023-05-10T15:10:30;21.27;;;8.77;;
54121;SDS011;40029;58.708;50.190;2023-05-10T15:13:03;22.50;;;10.75;;
54121;SDS011;40029;58.708;50.190;2023-05-10T15:15:34;21.73;;;10.73;;
54121;SDS011;40029;58.708;50.190;2023-05-10T15:18:06;29.15;;;12.40;;
54121;SDS011;40029;58.708;50.190;2023-05-10T15:20:37;28.33;;;13.05;;
54121;SDS011;40029;58.708;50.190;2023-05-10T15:23:08;26.67;;;11.80;;
54121;SDS011;40029;58.708;50.190;2023-05-10T15:25:39;28.40;;;12.45;;
54121;SDS011;40029;58.708;50.190;2023-05-10T15:28:11;18.17;;;7.82;;
54121;SDS011;40029;58.708;50.190;2023-05-10T15:30:42;16.67;;;8.85;;
54121;SDS011;40029;58.708;50.190;2023-05-10T15:33:13;11.77;;;6.22;;
54121;SDS011;40029;58.708;50.190;2023-05-10T15:36:03;7.90;;;4.82;;
54121;SDS011;40029;58.708;50.190;2023-05-10T15:38:34;9.00;;;5.00;;
54121;SDS011;40029;58.708;50.190;2023-05-10T15:41:07;10.23;;;4.20;;
54121;SDS011;40029;58.708;50.190;2023-05-10T15:43:57;9.27;;;4.80;;
54121;SDS011;40029;58.708;50.190;2023-05-10T15:46:31;10.45;;;4.60;;
54121;SDS011;40029;58.708;50.190;2023-05-10T15:49:02;12.07;;;4.82;;
54121;SDS011;40029;58.708;50.190;2023-05-10T15:51:52;13.45;;;4.88;;